KPMH/PMH METAR and TAF weather

Enter ICAO airport designator
Station Type Date Time Source
KPMH METAR 2019/10/22 15:59 UTC NOAA

KPMH 221559Z AUTO 20006KT 130V240 10SM SCT036 SCT046 SCT055 18/08 A2983 RMK AO2


Station Type Date Time Source
KPMH Decoded METAR 2019/10/22 15:59 UTC NOAA

Station name not available
Oct 22, 2019 - 11:59 AM EDT / 2019.10.22 1559 UTC
Wind: from the SSW (200 degrees) at 7 MPH (6 KT) (direction variable):0
Visibility: 10 mile(s):0
Sky conditions: partly cloudy
Temperature: 64 F (18 C)
Dew Point: 46 F (8 C)
Relative Humidity: 51%
Pressure (altimeter): 29.83 in. Hg (1010 hPa)
ob: KPMH 221559Z AUTO 20006KT 130V240 10SM SCT036 SCT046 SCT055 18/08 A2983 RMK AO2
cycle: 16

Station Type Date Time Source
KPMH TAF UTC NOAA

Error!

Example: see airport list